Time;durP1;ratioP1;P1;durP2;ratioP2;P2;SDS_P1;SDS_P2;PMS_P1;PMS_P2;Temp;Humidity;BMP_temperature;BMP_pressure;BME280_temperature;BME280_humidity;BME280_pressure;Samples;Min_cycle;Max_cycle;Signal;HPM_P1;HPM_P2
2023/07/04 00:02:08;;;;;;;5.53;1.50;;;17.40;70.60;;;17.89;60.93;97696.75;4969323;28;20452;-76
2023/07/04 00:04:35;;;;;;;4.10;2.00;;;17.40;71.20;;;17.77;61.42;97697.81;4989006;28;20550;-76
2023/07/04 00:07:03;;;;;;;4.40;1.20;;;17.30;71.60;;;17.80;61.48;97697.28;4987078;28;20533;-78
2023/07/04 00:09:30;;;;;;;1.50;1.30;;;17.30;72.10;;;17.65;61.92;97694.53;4987775;28;20472;-77
2023/07/04 00:11:59;;;;;;;1.93;1.50;;;17.30;72.80;;;17.73;61.72;97691.28;4989187;28;20460;-76
2023/07/04 00:14:27;;;;;;;1.77;1.63;;;17.30;72.60;;;17.75;61.79;97694.56;4989942;28;20448;-79
2023/07/04 00:16:54;;;;;;;2.00;1.43;;;17.40;72.90;;;17.78;61.70;97693.19;4986734;28;20948;-76
2023/07/04 00:19:22;;;;;;;1.87;1.57;;;17.40;73.50;;;17.45;62.29;97666.06;4988775;28;20460;-78
2023/07/04 00:21:49;;;;;;;2.63;1.43;;;17.30;73.70;;;17.67;62.12;97692.38;4969660;28;20476;-78
2023/07/04 00:24:17;;;;;;;2.40;1.50;;;17.30;73.60;;;17.53;62.71;97662.00;4989996;28;20444;-76
2023/07/04 00:26:45;;;;;;;2.10;1.30;;;17.30;73.90;;;17.65;62.76;97683.59;4986663;28;20466;-76
2023/07/04 00:29:15;;;;;;;1.70;1.60;;;17.40;74.30;;;17.66;62.56;97690.69;4985001;28;20544;-76
2023/07/04 00:31:44;;;;;;;3.40;1.50;;;17.40;74.40;;;17.71;62.43;97690.72;4987209;28;20471;-77
2023/07/04 00:34:12;;;;;;;2.83;1.73;;;17.30;74.60;;;17.53;63.01;97690.16;4990778;28;20471;-76
2023/07/04 00:36:40;;;;;;;3.53;1.77;;;17.20;75.00;;;17.59;63.12;97687.41;4985913;28;20582;-76
2023/07/04 00:39:07;;;;;;;2.97;1.47;;;17.20;75.50;;;17.59;62.94;97690.16;4987514;28;20940;-76
2023/07/04 00:41:35;;;;;;;7.23;1.47;;;17.20;75.80;;;17.62;62.99;97695.06;4970111;28;20456;-77
2023/07/04 00:44:09;;;;;;;3.10;1.53;;;17.10;75.90;;;17.61;62.85;97687.97;4990741;28;20448;-78
2023/07/04 00:46:43;;;;;;;1.70;1.60;;;17.00;76.30;;;17.50;63.22;97681.66;4996074;28;20482;-76
2023/07/04 00:49:22;;;;;;;1.70;1.60;;;17.00;76.90;;;17.48;63.34;97684.66;4996407;28;20995;-77
2023/07/04 00:51:58;;;;;;;4.13;1.80;;;17.00;77.20;;;17.50;63.07;97700.78;4985719;28;20542;-76
2023/07/04 00:54:32;;;;;;;2.73;1.87;;;17.00;77.10;;;16.99;63.51;97617.63;4970535;28;20452;-77
2023/07/04 00:57:06;;;;;;;2.37;1.60;;;17.10;77.30;;;17.51;63.24;97700.50;4978392;28;20487;-76
2023/07/04 00:59:37;;;;;;;1.80;1.63;;;17.10;77.30;;;17.53;63.32;97703.81;4982206;28;20475;-77
2023/07/04 01:02:06;;;;;;;2.70;1.73;;;17.00;77.40;;;17.48;63.60;97706.50;4986234;28;20444;-76
2023/07/04 01:04:34;;;;;;;2.50;1.90;;;17.00;77.90;;;17.43;63.65;97709.22;4984470;28;22614;-79
2023/07/04 01:07:13;;;;;;;2.30;1.60;;;17.10;77.50;;;17.56;63.56;97707.88;4973078;28;20461;-78
2023/07/04 01:09:49;;;;;;;4.10;1.53;;;17.10;77.60;;;17.53;63.29;97702.97;4974845;28;20475;-76
2023/07/04 01:12:18;;;;;;;2.10;1.90;;;17.10;77.50;;;17.22;63.52;97657.28;4976299;28;20471;-78
2023/07/04 01:14:48;;;;;;;1.67;1.50;;;17.10;77.60;;;17.41;63.97;97697.75;4976932;28;20462;-76
2023/07/04 01:17:16;;;;;;;2.10;1.63;;;17.10;77.80;;;17.35;64.34;97701.53;4959904;28;20618;-77
2023/07/04 01:19:43;;;;;;;2.43;1.60;;;17.10;78.10;;;17.35;64.28;97712.44;4976213;28;20455;-77
2023/07/04 01:22:24;;;;;;;2.40;1.93;;;17.00;78.00;;;17.31;64.54;97712.19;4957957;28;20846;-79
2023/07/04 01:25:06;;;;;;;1.57;1.37;;;17.00;78.40;;;17.41;64.20;97714.94;4976625;28;20447;-76
2023/07/04 01:27:36;;;;;;;2.00;1.50;;;17.00;78.40;;;17.40;64.21;97709.75;4975526;28;20958;-76
2023/07/04 01:30:06;;;;;;;2.87;1.60;;;17.00;78.60;;;17.21;65.13;97712.97;4963458;28;21007;-78
2023/07/04 01:32:35;;;;;;;2.87;1.77;;;16.90;79.20;;;17.27;64.92;97711.88;4975666;28;20493;-77
2023/07/04 01:35:03;;;;;;;2.13;1.73;;;17.00;79.10;;;17.24;65.44;97709.69;4982661;28;20526;-76
2023/07/04 01:37:31;;;;;;;3.63;1.60;;;16.90;79.40;;;17.29;65.31;97708.91;4989719;28;20465;-76
2023/07/04 01:39:59;;;;;;;2.10;1.30;;;16.90;79.70;;;17.09;65.88;97695.97;4996266;28;20452;-73
2023/07/04 01:42:30;;;;;;;2.60;1.77;;;16.80;80.00;;;17.20;65.77;97702.31;4984921;28;20569;-77
2023/07/04 01:45:03;;;;;;;4.43;2.10;;;16.80;80.30;;;17.23;66.07;97716.25;4980685;28;20452;-76
2023/07/04 01:47:33;;;;;;;3.80;1.83;;;16.80;80.90;;;17.17;66.21;97702.84;4975683;28;21042;-75
2023/07/04 01:50:02;;;;;;;3.80;1.57;;;16.80;81.00;;;17.11;66.70;97713.72;4975787;28;21165;-76
2023/07/04 01:52:32;;;;;;;3.07;1.83;;;16.70;81.40;;;16.99;67.18;97710.41;4969637;28;20468;-77
2023/07/04 01:55:00;;;;;;;1.87;1.43;;;16.70;81.70;;;16.99;67.43;97719.41;4973952;28;20464;-77
2023/07/04 01:57:28;;;;;;;3.07;1.80;;;16.70;82.00;;;17.03;67.55;97716.97;4976917;28;20491;-78
2023/07/04 01:59:55;;;;;;;1.50;1.37;;;16.70;82.50;;;17.00;67.47;97720.22;4982193;28;20975;-76
2023/07/04 02:02:24;;;;;;;3.30;1.60;;;16.60;82.60;;;16.85;68.04;97719.03;4960401;28;20957;-77
2023/07/04 02:04:51;;;;;;;2.23;1.67;;;16.50;83.40;;;16.91;67.82;97708.97;4976966;28;20452;-77
2023/07/04 02:07:18;;;;;;;1.67;1.57;;;16.50;83.50;;;16.83;68.81;97717.63;4959276;28;21589;-79
2023/07/04 02:09:46;;;;;;;1.97;1.30;;;16.50;83.90;;;16.88;68.73;97717.66;4971883;28;20470;-77
2023/07/04 02:12:13;;;;;;;2.20;2.00;;;16.60;84.20;;;16.88;68.79;97723.13;4973112;28;20475;-77
2023/07/04 02:14:40;;;;;;;4.63;2.03;;;16.50;84.20;;;16.88;68.87;97719.59;4958504;28;20522;-79
2023/07/04 02:17:07;;;;;;;2.43;1.93;;;16.50;84.50;;;16.91;69.15;97730.81;4971342;28;20480;-77
2023/07/04 02:19:36;;;;;;;2.73;1.70;;;16.50;84.80;;;16.90;69.10;97729.13;4973744;28;20458;-77
2023/07/04 02:22:03;;;;;;;4.00;2.20;;;16.60;85.00;;;16.92;69.45;97726.16;4974251;28;20542;-78
2023/07/04 02:24:31;;;;;;;2.03;1.83;;;16.60;85.00;;;17.03;68.75;97727.06;4977016;28;20467;-77
2023/07/04 02:26:58;;;;;;;2.33;1.50;;;16.70;84.90;;;16.94;69.00;97718.50;4974417;28;20463;-78
2023/07/04 02:29:25;;;;;;;1.77;1.23;;;16.70;84.90;;;17.17;68.88;97739.13;4975897;28;20468;-77
2023/07/04 02:31:53;;;;;;;2.30;1.87;;;16.90;84.60;;;17.17;68.96;97739.13;4975831;28;20520;-78
2023/07/04 02:34:20;;;;;;;2.33;1.87;;;16.90;84.40;;;17.25;68.22;97735.91;4986801;28;20479;-77
2023/07/04 02:36:48;;;;;;;2.23;1.70;;;16.90;84.40;;;17.38;67.97;97745.50;4987023;28;20483;-77
2023/07/04 02:39:16;;;;;;;3.57;2.00;;;16.90;84.30;;;17.19;68.38;97741.59;4987478;28;20735;-77
2023/07/04 02:41:43;;;;;;;2.90;1.90;;;16.90;84.00;;;17.35;68.18;97742.47;4981203;28;20844;-77
2023/07/04 02:44:10;;;;;;;5.47;2.03;;;16.90;84.20;;;17.39;67.77;97746.34;4977840;28;20916;-76
2023/07/04 02:46:37;;;;;;;1.83;1.60;;;16.90;84.00;;;17.41;67.62;97749.63;4967298;28;20477;-77
2023/07/04 02:49:05;;;;;;;2.00;1.60;;;16.90;84.30;;;17.32;68.37;97734.84;4984579;28;20518;-78
2023/07/04 02:51:33;;;;;;;2.40;1.57;;;16.90;84.40;;;17.33;68.23;97740.03;4977428;28;20547;-77
2023/07/04 02:54:02;;;;;;;2.77;2.00;;;16.90;84.60;;;17.32;68.21;97751.22;4980187;28;20968;-78
2023/07/04 02:56:29;;;;;;;3.07;1.63;;;17.00;84.50;;;17.46;67.99;97746.91;4976211;28;20449;-75
2023/07/04 02:58:56;;;;;;;3.03;2.10;;;17.00;84.30;;;17.15;67.74;97697.63;4965042;28;20954;-78
2023/07/04 03:01:23;;;;;;;2.53;1.70;;;17.00;84.50;;;17.45;67.98;97747.19;4977746;28;20459;-76
2023/07/04 03:03:51;;;;;;;3.90;1.80;;;17.00;84.20;;;17.27;68.26;97758.31;4974745;28;20471;-76
2023/07/04 03:06:18;;;;;;;2.10;1.90;;;17.00;84.00;;;17.36;68.08;97746.84;4972799;28;20504;-77
2023/07/04 03:08:45;;;;;;;2.93;1.93;;;17.00;84.10;;;17.56;67.63;97757.88;4973185;28;20459;-77
2023/07/04 03:11:14;;;;;;;1.80;1.60;;;17.10;84.10;;;17.59;67.33;97755.69;4971460;28;20498;-78
2023/07/04 03:13:41;;;;;;;3.40;2.17;;;17.10;83.90;;;17.69;66.93;97750.28;4975056;28;20448;-77
2023/07/04 03:16:09;;;;;;;2.03;1.57;;;17.20;83.80;;;17.34;67.04;97705.34;4972445;28;20461;-75
2023/07/04 03:18:36;;;;;;;2.20;1.90;;;17.20;83.60;;;17.63;67.18;97757.63;4941334;28;21011;-76
2023/07/04 03:21:03;;;;;;;1.93;1.70;;;17.20;83.90;;;17.78;66.56;97758.78;4972008;28;20477;-78
2023/07/04 03:23:30;;;;;;;2.00;1.70;;;17.30;83.50;;;17.72;66.89;97759.81;4973566;28;20499;-76
2023/07/04 03:25:57;;;;;;;4.83;2.13;;;17.30;83.50;;;17.80;66.41;97756.59;4973939;28;21002;-77
2023/07/04 03:28:26;;;;;;;2.50;1.57;;;17.30;83.20;;;17.55;66.93;97756.25;4969430;28;20515;-76
2023/07/04 03:30:54;;;;;;;3.60;2.23;;;17.30;83.10;;;17.63;66.68;97745.88;4973526;28;20453;-77
2023/07/04 03:33:21;;;;;;;2.30;1.93;;;17.30;83.10;;;17.78;66.30;97764.22;4984071;28;20988;-77
2023/07/04 03:35:50;;;;;;;5.77;2.07;;;17.40;82.90;;;17.81;66.02;97750.03;4986514;28;20461;-78
2023/07/04 03:38:17;;;;;;;2.90;1.80;;;17.40;82.70;;;17.86;65.57;97749.22;4974926;28;20485;-77
2023/07/04 03:40:44;;;;;;;2.30;1.77;;;17.40;82.70;;;17.67;66.36;97749.72;4975249;28;20472;-77
2023/07/04 03:43:12;;;;;;;2.10;1.70;;;17.40;82.60;;;17.86;66.09;97754.69;4972522;28;20484;-77
2023/07/04 03:45:41;;;;;;;1.83;1.70;;;17.40;82.60;;;17.90;65.80;97745.69;4974132;28;20475;-77
2023/07/04 03:48:08;;;;;;;2.87;1.73;;;17.50;82.60;;;17.87;65.82;97756.34;4954518;28;20556;-78
2023/07/04 03:50:35;;;;;;;1.70;1.53;;;17.40;82.60;;;17.55;65.36;97693.41;4972336;28;20494;-76
2023/07/04 03:53:02;;;;;;;2.40;1.63;;;17.50;82.30;;;17.94;65.60;97760.44;4953298;28;20453;-78
2023/07/04 03:55:30;;;;;;;2.40;2.10;;;17.50;82.30;;;18.14;64.97;97760.78;4974166;28;21106;-78
2023/07/04 03:57:57;;;;;;;2.20;1.60;;;17.60;82.10;;;18.05;65.05;97761.31;4973077;28;21023;-78
2023/07/04 04:00:24;;;;;;;3.80;1.70;;;17.60;82.20;;;18.03;65.07;97760.75;4974584;28;20464;-76
2023/07/04 04:02:53;;;;;;;3.37;2.13;;;17.60;82.00;;;18.15;64.54;97763.25;4974474;28;20550;-76
2023/07/04 04:05:20;;;;;;;2.83;2.00;;;17.70;81.80;;;18.18;64.59;97756.41;4979242;28;20574;-77
2023/07/04 04:07:48;;;;;;;2.50;1.70;;;17.70;81.60;;;17.76;65.56;97744.56;4979667;28;20452;-77
2023/07/04 04:10:16;;;;;;;5.00;2.00;;;17.70;81.70;;;18.09;64.93;97758.88;4973620;28;20556;-78
2023/07/04 04:12:43;;;;;;;1.67;1.37;;;17.60;81.80;;;18.00;65.04;97755.81;4975366;28;20518;-77
2023/07/04 04:15:11;;;;;;;2.00;1.70;;;17.70;81.60;;;18.16;64.70;97759.41;4971081;28;21017;-76
2023/07/04 04:17:39;;;;;;;3.20;1.87;;;17.80;81.60;;;18.12;65.06;97752.84;4975540;28;20468;-76
2023/07/04 04:20:10;;;;;;;2.87;1.50;;;17.80;81.70;;;18.24;64.33;97752.59;4955850;28;20488;-77
2023/07/04 04:22:39;;;;;;;2.70;1.70;;;17.90;81.30;;;18.20;64.24;97755.06;4971204;28;20496;-76
2023/07/04 04:25:08;;;;;;;3.27;1.60;;;17.90;81.10;;;18.44;63.65;97759.97;4971080;28;20895;-78
2023/07/04 04:27:35;;;;;;;2.60;2.10;;;18.00;81.00;;;18.51;63.33;97759.72;4957658;28;21305;-78
2023/07/04 04:30:08;;;;;;;3.20;1.80;;;18.10;80.80;;;18.65;63.04;97763.53;4969658;28;20459;-79
2023/07/04 04:32:35;;;;;;;3.77;2.10;;;18.20;80.90;;;18.81;62.27;97774.47;4969461;28;20471;-76
2023/07/04 04:35:03;;;;;;;2.53;1.73;;;18.30;80.10;;;18.95;61.99;97764.59;4978771;28;20479;-80
2023/07/04 04:37:32;;;;;;;2.63;1.80;;;18.50;79.80;;;18.92;62.18;97769.78;4982181;28;20502;-79
2023/07/04 04:40:00;;;;;;;2.90;1.80;;;18.60;79.80;;;19.06;61.61;97761.88;4961251;28;20460;-79
2023/07/04 04:42:28;;;;;;;2.20;1.70;;;18.70;79.60;;;19.23;60.98;97776.06;4982593;28;20510;-78
2023/07/04 04:44:55;;;;;;;2.07;1.70;;;18.90;79.20;;;19.17;60.84;97774.41;4989909;28;20459;-83
2023/07/04 04:47:24;;;;;;;2.20;2.00;;;18.90;78.60;;;19.44;60.50;97792.41;4987386;28;20447;-80
2023/07/04 04:49:51;;;;;;;2.60;1.70;;;19.10;78.40;;;19.36;60.38;97780.13;4989125;28;20774;-85
2023/07/04 04:52:21;;;;;;;2.10;1.90;;;19.10;78.20;;;19.15;60.71;97773.88;4986588;28;20479;-77
2023/07/04 04:54:50;;;;;;;3.60;1.90;;;19.10;78.30;;;19.06;60.58;97743.50;4967926;28;20448;-80
2023/07/04 04:57:17;;;;;;;1.63;1.40;;;19.10;78.30;;;19.24;60.65;97799.59;4970873;28;20457;-81
2023/07/04 04:59:47;;;;;;;1.70;1.60;;;19.00;78.00;;;19.24;60.83;97796.88;4981409;28;20464;-79
2023/07/04 05:02:15;;;;;;;2.77;1.50;;;19.00;78.30;;;19.15;60.24;97757.44;4985229;28;20490;-78
2023/07/04 05:04:42;;;;;;;2.80;1.87;;;19.00;78.10;;;19.67;59.61;97806.59;4963498;28;20460;-77
2023/07/04 05:07:12;;;;;;;2.57;1.80;;;19.20;78.10;;;19.64;60.21;97807.16;4965276;28;20474;-78
2023/07/04 05:09:39;;;;;;;2.03;1.70;;;19.30;78.10;;;19.90;59.49;97809.78;4976149;28;20490;-80
2023/07/04 05:12:09;;;;;;;1.87;1.50;;;19.50;78.20;;;19.81;58.91;97813.13;4959812;28;20471;-81
2023/07/04 05:14:37;;;;;;;3.10;2.00;;;19.60;77.00;;;19.94;59.75;97810.88;4978928;28;20465;-79
2023/07/04 05:17:05;;;;;;;1.60;1.30;;;19.60;77.40;;;19.87;58.83;97810.34;4956158;28;20910;-74
2023/07/04 05:19:32;;;;;;;2.27;1.70;;;19.70;76.60;;;20.14;58.52;97822.84;4975065;28;20484;-76
2023/07/04 05:22:00;;;;;;;4.17;2.50;;;19.80;76.90;;;20.60;56.68;97811.56;4947121;28;20452;-76
2023/07/04 05:24:27;;;;;;;3.00;2.30;;;20.30;75.80;;;20.64;57.07;97823.59;4978762;28;20530;-81
2023/07/04 05:26:54;;;;;;;2.53;1.83;;;20.50;75.40;;;20.38;57.11;97821.03;4968240;28;20453;-76
2023/07/04 05:29:23;;;;;;;3.53;1.73;;;20.40;74.80;;;20.26;57.66;97826.06;4981065;28;20463;-80
2023/07/04 05:31:51;;;;;;;3.10;2.07;;;20.20;74.90;;;20.12;57.99;97828.59;4978636;28;20804;-77
2023/07/04 05:34:18;;;;;;;4.27;1.70;;;20.10;75.20;;;19.84;58.94;97830.09;4971184;28;20600;-79
2023/07/04 05:36:46;;;;;;;3.53;2.00;;;19.90;75.20;;;19.69;59.28;97831.81;4979492;28;20456;-79
2023/07/04 05:39:14;;;;;;;6.47;2.70;;;19.70;75.60;;;19.54;60.02;97822.53;4960568;28;21057;-77
2023/07/04 05:41:41;;;;;;;2.53;2.10;;;19.50;75.80;;;20.33;57.31;97826.56;4974446;28;21135;-76
2023/07/04 05:44:10;;;;;;;1.80;1.67;;;20.20;75.00;;;20.88;55.21;97817.41;4959860;28;20471;-77
2023/07/04 05:46:39;;;;;;;2.60;1.90;;;21.00;73.50;;;21.57;53.77;97829.34;4975578;28;20535;-75
2023/07/04 05:49:07;;;;;;;2.23;2.03;;;21.70;71.90;;;22.32;51.66;97822.34;4961804;28;20467;-78
2023/07/04 05:51:34;;;;;;;2.70;1.90;;;22.60;69.90;;;22.93;49.97;97821.72;4962093;28;20695;-79
2023/07/04 05:54:02;;;;;;;3.30;2.20;;;23.10;68.30;;;23.37;48.19;97783.75;4959936;28;20530;-80
2023/07/04 05:56:31;;;;;;;3.07;2.30;;;23.70;66.70;;;23.49;48.13;97822.66;4980913;28;21009;-74
2023/07/04 05:59:00;;;;;;;3.87;2.30;;;23.80;65.20;;;23.68;47.22;97821.72;4984134;28;20503;-75
2023/07/04 06:01:33;;;;;;;3.53;1.90;;;24.10;64.20;;;23.30;48.15;97831.00;4977217;28;20473;-74
2023/07/04 06:04:03;;;;;;;2.13;1.60;;;23.80;63.50;;;23.28;48.29;97826.94;4985817;28;20465;-78
2023/07/04 06:06:33;;;;;;;2.77;1.83;;;23.70;63.60;;;24.04;46.90;97848.63;4977460;28;20485;-76
2023/07/04 06:09:05;;;;;;;3.33;2.00;;;24.00;63.50;;;23.86;46.13;97824.69;4965897;28;20459;-77
2023/07/04 06:11:38;;;;;;;5.37;2.43;;;24.60;61.50;;;23.91;45.92;97830.09;4979952;28;20466;-77
2023/07/04 06:14:07;;;;;;;4.00;2.10;;;24.40;60.70;;;24.42;45.10;97830.13;4976820;28;20475;-75
2023/07/04 06:16:35;;;;;;;8.27;2.83;;;24.70;60.60;;;24.69;44.44;97833.91;4975632;28;20445;-75
2023/07/04 06:19:04;;;;;;;2.73;1.43;;;24.90;59.90;;;24.48;44.89;97840.75;4982397;28;20476;-79
2023/07/04 06:21:32;;;;;;;2.70;2.10;;;24.80;59.60;;;25.03;42.55;97849.13;4982216;28;20456;-74
2023/07/04 06:24:00;;;;;;;5.00;2.13;;;25.10;58.40;;;23.89;45.13;97846.16;4989647;28;20454;-76
2023/07/04 06:26:32;;;;;;;2.70;2.00;;;24.80;58.30;;;23.24;46.54;97842.38;4988381;28;21256;-75
2023/07/04 06:29:00;;;;;;;3.00;2.20;;;24.00;58.70;;;23.59;46.07;97849.19;4983625;28;20459;-73
2023/07/04 06:31:28;;;;;;;6.40;2.37;;;24.00;58.80;;;23.45;45.23;97849.19;4983383;28;20539;-77
2023/07/04 06:33:56;;;;;;;3.73;2.60;;;24.00;58.00;;;22.57;46.98;97847.91;4983541;28;20462;-74
2023/07/04 06:36:25;;;;;;;5.27;2.87;;;23.30;58.50;;;21.74;48.55;97848.97;4961521;28;20472;-76
2023/07/04 06:38:53;;;;;;;2.70;2.30;;;22.40;58.90;;;20.91;50.54;97844.28;4968633;28;20488;-73
2023/07/04 06:41:20;;;;;;;6.03;3.13;;;21.60;59.80;;;21.15;50.39;97853.69;4982347;28;20485;-74
2023/07/04 06:43:49;;;;;;;4.30;2.93;;;21.30;60.70;;;21.25;49.79;97844.53;4985437;28;20452;-76
2023/07/04 06:46:20;;;;;;;3.43;2.67;;;21.30;60.40;;;21.62;49.19;97851.28;4978904;28;20466;-76
2023/07/04 06:48:48;;;;;;;2.60;2.20;;;21.50;60.80;;;21.49;49.46;97847.28;4968986;28;20479;-74
2023/07/04 06:51:16;;;;;;;4.80;2.80;;;21.50;60.60;;;21.30;49.28;97823.31;4982228;28;20447;-78
2023/07/04 06:53:46;;;;;;;2.20;2.00;;;21.60;60.40;;;21.20;49.41;97807.75;4983680;28;20463;-75
2023/07/04 06:56:18;;;;;;;4.33;2.73;;;21.60;60.50;;;21.76;49.14;97852.25;4980245;28;20460;-76
2023/07/04 06:58:49;;;;;;;4.50;2.63;;;21.70;60.50;;;22.03;47.91;97850.81;4977536;28;20479;-74
2023/07/04 07:01:18;;;;;;;3.23;2.27;;;21.90;60.00;;;22.24;47.09;97852.47;4977555;28;20468;-73
2023/07/04 07:03:46;;;;;;;3.50;2.80;;;22.00;59.60;;;21.93;48.34;97851.75;4970251;28;20463;-72
2023/07/04 07:06:14;;;;;;;2.47;2.20;;;22.00;60.00;;;22.14;48.28;97847.94;4967401;28;20469;-73
2023/07/04 07:08:42;;;;;;;4.43;2.53;;;22.10;60.30;;;21.98;47.91;97859.13;4984978;28;20460;-72
2023/07/04 07:11:15;;;;;;;2.70;2.20;;;22.10;59.70;;;22.02;46.38;97860.19;4963230;28;20490;-74
2023/07/04 07:13:44;;;;;;;7.53;3.40;;;22.10;58.70;;;21.34;46.61;97837.31;4960692;28;20867;-77
2023/07/04 07:16:14;;;;;;;4.72;3.17;;;21.70;57.70;;;21.72;47.19;97856.69;4976406;28;20458;-76
2023/07/04 07:18:43;;;;;;;5.77;3.50;;;21.70;58.70;;;21.87;46.19;97865.88;4983472;28;20636;-76
2023/07/04 07:21:13;;;;;;;3.80;2.80;;;21.80;57.90;;;21.73;45.55;97855.56;4966820;28;20453;-78
2023/07/04 07:23:42;;;;;;;2.80;2.33;;;21.80;57.30;;;21.57;47.08;97862.31;4983092;28;21004;-78
2023/07/04 07:26:13;;;;;;;6.33;3.33;;;21.60;58.30;;;21.55;47.06;97861.81;4969618;28;20454;-77
2023/07/04 07:28:41;;;;;;;5.33;3.20;;;21.50;58.20;;;21.91;46.26;97853.16;4983461;28;21287;-76
2023/07/04 07:31:14;;;;;;;4.57;2.87;;;21.80;58.40;;;22.56;45.68;97871.03;4983104;28;20465;-77
2023/07/04 07:33:45;;;;;;;4.30;2.60;;;22.20;58.50;;;22.91;44.54;97868.03;4979954;28;20454;-77
2023/07/04 07:36:16;;;;;;;3.23;2.50;;;22.70;57.90;;;22.90;45.07;97864.44;4981457;28;20471;-77
2023/07/04 07:38:44;;;;;;;4.20;3.00;;;22.80;58.00;;;23.03;44.04;97860.09;4981719;28;20530;-79
2023/07/04 07:41:13;;;;;;;6.10;2.70;;;23.00;57.40;;;22.69;44.55;97854.88;4962728;28;20447;-76
2023/07/04 07:43:42;;;;;;;3.97;3.10;;;22.90;57.00;;;22.54;45.17;97859.50;4982797;28;20946;-76
2023/07/04 07:46:12;;;;;;;5.20;3.07;;;22.70;57.20;;;22.55;45.16;97863.91;4968026;28;20461;-76
2023/07/04 07:48:40;;;;;;;4.20;3.13;;;22.60;57.20;;;22.93;44.04;97868.53;4983750;28;20971;-76
2023/07/04 07:51:10;;;;;;;4.17;3.00;;;22.80;56.80;;;23.34;43.61;97861.53;4978280;28;20458;-76
2023/07/04 07:53:39;;;;;;;4.73;3.60;;;23.10;56.90;;;24.05;42.18;97850.25;4974982;28;20454;-77
2023/07/04 07:56:08;;;;;;;5.67;2.97;;;23.80;56.60;;;24.03;41.23;97855.22;4987747;28;20463;-81
2023/07/04 07:58:38;;;;;;;6.87;3.10;;;24.00;55.50;;;23.04;43.14;97805.81;4984563;28;20466;-77
2023/07/04 08:01:11;;;;;;;4.63;2.87;;;23.60;55.90;;;22.52;45.04;97850.75;4961344;28;20477;-83
2023/07/04 08:03:39;;;;;;;4.07;3.40;;;22.80;56.40;;;22.69;44.07;97850.19;4978240;28;20456;-76
2023/07/04 08:06:07;;;;;;;3.03;2.70;;;22.70;56.10;;;22.79;44.04;97835.44;4969417;28;20449;-81
2023/07/04 08:08:35;;;;;;;5.30;3.37;;;22.70;56.10;;;23.32;42.47;97838.97;4979727;28;20451;-75
2023/07/04 08:11:02;;;;;;;4.30;3.10;;;23.10;55.60;;;22.91;43.59;97843.25;4983690;28;20520;-86
2023/07/04 08:13:30;;;;;;;6.00;3.80;;;23.00;55.60;;;22.53;43.83;97835.84;4984366;28;20542;-76
2023/07/04 08:15:59;;;;;;;3.60;2.43;;;22.70;55.50;;;22.69;43.21;97843.88;4976394;28;20460;-75
2023/07/04 08:18:26;;;;;;;5.30;3.20;;;22.50;55.30;;;22.72;42.69;97843.28;4981905;28;20540;-75
2023/07/04 08:20:57;;;;;;;3.93;3.00;;;22.60;55.00;;;22.58;42.63;97837.69;4992000;28;20456;-74
2023/07/04 08:23:26;;;;;;;4.07;2.90;;;22.50;54.80;;;22.53;42.57;97813.00;4970471;28;20456;-80
2023/07/04 08:25:53;;;;;;;5.07;3.53;;;22.60;54.70;;;22.50;42.97;97825.41;4988908;28;20457;-74
2023/07/04 08:28:21;;;;;;;4.00;3.47;;;22.60;54.80;;;22.69;42.99;97835.63;4975541;28;20454;-75
2023/07/04 08:30:49;;;;;;;5.00;3.30;;;22.60;54.90;;;22.73;42.59;97837.44;4971057;28;20441;-83
2023/07/04 08:33:18;;;;;;;4.70;2.93;;;22.60;54.70;;;22.23;43.86;97832.41;4987341;28;20456;-76
2023/07/04 08:35:55;;;;;;;7.13;3.10;;;22.30;55.10;;;22.71;43.52;97841.63;4989470;28;20455;-76
2023/07/04 08:38:22;;;;;;;3.60;3.23;;;22.50;55.30;;;22.90;42.73;97836.91;4987193;28;20452;-77
2023/07/04 08:40:50;;;;;;;4.00;3.30;;;22.80;55.00;;;22.90;42.43;97831.41;4980397;28;20458;-75
2023/07/04 08:43:22;;;;;;;5.53;4.37;;;22.80;54.60;;;23.38;41.42;97832.22;4986944;28;20471;-75
2023/07/04 08:45:50;;;;;;;7.20;3.83;;;23.00;54.20;;;23.15;41.50;97832.09;4972783;28;20464;-76
2023/07/04 08:48:23;;;;;;;9.10;4.80;;;23.10;54.00;;;23.37;40.84;97836.13;4991998;28;20466;-76
2023/07/04 08:50:54;;;;;;;4.97;4.00;;;23.20;54.00;;;23.00;41.40;97824.88;4993495;28;20675;-77
2023/07/04 08:53:23;;;;;;;6.60;4.27;;;23.10;53.60;;;22.67;42.47;97811.13;4991152;28;20455;-79
2023/07/04 08:56:15;;;;;;;6.80;3.83;;;22.90;54.00;;;23.02;42.09;97841.94;4994474;28;20460;-76
2023/07/04 08:58:51;;;;;;;5.37;3.90;;;22.90;54.40;;;22.70;41.82;97840.00;4987573;28;20507;-76
2023/07/04 09:01:40;;;;;;;5.87;4.80;;;22.70;53.90;;;22.48;42.61;97850.50;4973140;28;20457;-80
2023/07/04 09:04:16;;;;;;;6.60;4.20;;;22.50;54.10;;;22.28;43.10;97846.09;4976268;28;20445;-76
2023/07/04 09:06:54;;;;;;;5.77;4.13;;;22.20;54.10;;;22.35;42.74;97835.50;4988097;28;20516;-76
2023/07/04 09:09:33;;;;;;;6.27;4.70;;;22.20;53.90;;;22.50;42.21;97825.41;4984761;28;20468;-80
2023/07/04 09:12:01;;;;;;;5.30;4.50;;;22.40;53.90;;;22.82;42.12;97825.75;4993356;28;20452;-76
2023/07/04 09:14:36;;;;;;;8.50;5.50;;;22.60;54.20;;;23.17;39.71;97774.72;4979774;28;20466;-75
2023/07/04 09:17:12;;;;;;;8.33;5.97;;;23.20;52.70;;;23.73;37.64;97823.56;4993028;28;20464;-79
2023/07/04 09:19:47;;;;;;;9.10;7.30;;;23.60;51.10;;;23.54;37.09;97809.88;4990343;28;20479;-75
2023/07/04 09:22:15;;;;;;;9.37;6.77;;;23.70;50.20;;;23.71;37.55;97826.63;4989466;28;20451;-76
2023/07/04 09:24:42;;;;;;;9.67;6.20;;;23.80;50.70;;;23.75;38.25;97835.94;4994137;28;20460;-79
2023/07/04 09:27:13;;;;;;;9.07;5.83;;;23.70;51.10;;;23.31;40.38;97840.09;4995800;28;20509;-77
2023/07/04 09:29:41;;;;;;;6.80;4.80;;;23.30;52.20;;;22.63;42.01;97835.69;4972025;28;20466;-76
2023/07/04 09:32:10;;;;;;;8.97;5.33;;;22.80;52.90;;;22.47;42.99;97854.38;4988792;28;20515;-77
2023/07/04 09:34:44;;;;;;;7.77;5.60;;;22.50;53.50;;;22.40;42.69;97845.63;4981826;28;20463;-83
2023/07/04 09:37:15;;;;;;;7.37;5.20;;;22.30;53.50;;;22.46;42.09;97840.88;4985700;28;20448;-78
2023/07/04 09:39:49;;;;;;;6.87;4.47;;;22.40;53.20;;;22.75;41.75;97846.25;4990683;28;21108;-76
2023/07/04 09:42:18;;;;;;;7.67;5.00;;;22.50;53.30;;;23.12;40.90;97821.66;4990352;28;20467;-76
2023/07/04 09:44:47;;;;;;;6.67;4.50;;;22.90;53.20;;;23.28;40.70;97829.69;4984945;28;20550;-78
2023/07/04 09:47:25;;;;;;;8.30;5.77;;;23.20;52.90;;;23.55;38.81;97842.66;4988560;28;20459;-77
2023/07/04 09:50:11;;;;;;;9.07;6.90;;;23.30;51.90;;;23.69;38.54;97793.03;4989912;28;20450;-77
2023/07/04 09:52:39;;;;;;;8.57;6.20;;;23.60;51.60;;;24.05;38.12;97808.03;4976350;28;20478;-78
2023/07/04 09:55:13;;;;;;;11.03;7.27;;;24.10;51.60;;;24.67;36.66;97819.63;4988863;28;20462;-81
2023/07/04 09:57:41;;;;;;;9.80;7.03;;;24.40;50.60;;;25.00;35.53;97783.44;4973791;28;20462;-77
2023/07/04 10:00:20;;;;;;;10.60;7.20;;;24.90;50.50;;;25.66;34.52;97832.56;4988510;28;20532;-80
2023/07/04 10:02:52;;;;;;;9.27;6.60;;;25.30;49.80;;;25.90;34.10;97817.50;4989149;28;20476;-80
2023/07/04 10:05:29;;;;;;;7.70;6.40;;;25.70;49.60;;;25.78;34.23;97829.19;4968786;28;20471;-77
2023/07/04 10:08:06;;;;;;;9.20;5.90;;;25.70;49.10;;;25.27;35.72;97825.88;4985383;28;20451;-78
2023/07/04 10:10:37;;;;;;;7.63;6.40;;;25.30;49.40;;;25.10;36.17;97821.88;4987507;28;20518;-81
2023/07/04 10:13:08;;;;;;;9.90;6.60;;;24.90;49.70;;;25.30;34.96;97819.69;4991820;28;20451;-81
2023/07/04 10:15:42;;;;;;;10.30;7.47;;;25.10;49.40;;;24.85;35.43;97826.91;4992245;28;20463;-79
2023/07/04 10:18:24;;;;;;;11.37;8.07;;;24.90;48.90;;;24.60;35.39;97817.28;4993173;28;20923;-76
2023/07/04 10:20:57;;;;;;;9.17;7.30;;;24.70;48.70;;;24.92;35.08;97825.66;4986980;28;20502;-83
2023/07/04 10:23:27;;;;;;;13.03;8.70;;;24.80;48.70;;;25.26;34.40;97816.75;4974090;28;20469;-80
2023/07/04 10:25:56;;;;;;;11.63;7.30;;;25.00;48.40;;;25.64;34.56;97815.47;4971176;28;20490;-79
2023/07/04 10:28:29;;;;;;;10.87;7.50;;;25.20;48.70;;;25.15;34.60;97809.84;4975040;28;20830;-77
2023/07/04 10:31:00;;;;;;;9.70;7.30;;;25.20;48.30;;;25.21;34.59;97821.59;4987654;28;20454;-84